createdAt,value
2024-01-12T00:02:24.503Z,103436.38
2024-01-12T00:04:52.302Z,103449.19
2024-01-12T00:07:18.932Z,103456.09
2024-01-12T00:09:45.406Z,103445.72
2024-01-12T00:12:11.924Z,103440.56
2024-01-12T00:14:38.424Z,103445.81
2024-01-12T00:17:04.904Z,103446.66
2024-01-12T00:19:31.306Z,103448.38
2024-01-12T00:21:57.813Z,103440.56
2024-01-12T00:24:24.767Z,103448.19
2024-01-12T00:26:51.424Z,103438.69
2024-01-12T00:29:18.066Z,103440.31
2024-01-12T00:31:44.920Z,103447.16
2024-01-12T00:34:11.484Z,103444.63
2024-01-12T00:36:38.007Z,103449.00
2024-01-12T00:39:05.219Z,103454.22
2024-01-12T00:41:31.855Z,103460.25
2024-01-12T00:43:58.902Z,103462.88
2024-01-12T00:46:25.352Z,103463.78
2024-01-12T00:48:51.987Z,103461.19
2024-01-12T00:51:18.972Z,103463.81
2024-01-12T00:53:45.647Z,103466.47
2024-01-12T00:56:12.266Z,103469.91
2024-01-12T00:58:38.738Z,103467.34
2024-01-12T01:01:05.356Z,103463.91
2024-01-12T01:03:32.231Z,103475.06
2024-01-12T01:05:58.841Z,103475.91
2024-01-12T01:08:25.561Z,103484.56
2024-01-12T01:10:52.084Z,103471.63
2024-01-12T01:13:18.621Z,103475.06
2024-01-12T01:15:45.088Z,103468.25
2024-01-12T01:18:12.338Z,103457.94
2024-01-12T01:20:39.396Z,103465.72
2024-01-12T01:23:06.210Z,103470.09
2024-01-12T01:25:32.692Z,103464.03
2024-01-12T01:27:59.201Z,103458.91
2024-01-12T01:30:25.689Z,103458.94
2024-01-12T01:32:52.445Z,103453.78
2024-01-12T01:35:19.162Z,103456.41
2024-01-12T01:37:45.687Z,103463.25
2024-01-12T01:40:12.446Z,103456.28
2024-01-12T01:42:40.223Z,103458.84
2024-01-12T01:45:07.104Z,103451.91
2024-01-12T01:47:34.041Z,103456.22
2024-01-12T01:50:01.421Z,103458.75
2024-01-12T01:52:28.918Z,103464.78
2024-01-12T01:54:57.915Z,103463.00
2024-01-12T01:57:26.842Z,103463.03
2024-01-12T01:59:53.698Z,103470.78
2024-01-12T02:02:20.386Z,103464.69
2024-01-12T02:04:46.908Z,103456.97
2024-01-12T02:07:13.421Z,103455.25
2024-01-12T02:09:40.758Z,103458.63
2024-01-12T02:12:07.980Z,103450.00
2024-01-12T02:14:34.615Z,103464.72
2024-01-12T02:17:01.279Z,103453.56
2024-01-12T02:19:27.755Z,103455.25
2024-01-12T02:21:54.311Z,103452.56
2024-01-12T02:24:20.776Z,103447.38
2024-01-12T02:26:47.338Z,103450.81
2024-01-12T02:29:13.984Z,103452.53
2024-01-12T02:31:40.810Z,103459.44
2024-01-12T02:34:07.719Z,103456.94
2024-01-12T02:36:34.230Z,103457.03
2024-01-12T02:39:00.697Z,103453.59
2024-01-12T02:41:27.285Z,103451.84
2024-01-12T02:43:53.773Z,103447.56
2024-01-12T02:46:20.352Z,103441.59
2024-01-12T02:48:46.900Z,103445.97
2024-01-12T02:51:13.388Z,103441.72
2024-01-12T02:53:40.009Z,103433.97
2024-01-12T02:56:06.634Z,103437.34
2024-01-12T02:58:33.413Z,103437.34
2024-01-12T03:01:00.683Z,103448.59
2024-01-12T03:03:27.542Z,103445.16
2024-01-12T03:05:54.194Z,103445.13
2024-01-12T03:08:20.916Z,103446.00
2024-01-12T03:10:47.400Z,103444.22
2024-01-12T03:13:13.886Z,103444.16
2024-01-12T03:15:40.358Z,103436.47
2024-01-12T03:18:09.495Z,103429.63
2024-01-12T03:20:36.499Z,103421.84
2024-01-12T03:23:03.192Z,103416.75
2024-01-12T03:25:30.002Z,103415.94
2024-01-12T03:27:56.421Z,103415.94
2024-01-12T03:30:22.971Z,103410.75
2024-01-12T03:32:49.675Z,103403.03
2024-01-12T03:35:16.615Z,103414.25
2024-01-12T03:37:43.248Z,103411.69
2024-01-12T03:40:10.333Z,103402.25
2024-01-12T03:42:36.744Z,103412.53
2024-01-12T03:45:03.423Z,103410.75
2024-01-12T03:47:30.191Z,103406.44
2024-01-12T03:49:56.729Z,103409.00
2024-01-12T03:52:23.213Z,103415.03
2024-01-12T03:54:49.681Z,103421.03
2024-01-12T03:57:16.705Z,103410.72
2024-01-12T03:59:43.396Z,103424.50
2024-01-12T04:02:09.923Z,103420.19
2024-01-12T04:04:36.369Z,103421.97
2024-01-12T04:07:02.863Z,103416.81
2024-01-12T04:09:29.410Z,103424.59
2024-01-12T04:11:55.936Z,103417.69
2024-01-12T04:14:22.476Z,103423.72
2024-01-12T04:16:48.974Z,103431.44
2024-01-12T04:19:15.556Z,103417.63
2024-01-12T04:21:42.039Z,103408.13
2024-01-12T04:24:08.684Z,103407.28
2024-01-12T04:26:36.371Z,103399.53
2024-01-12T04:29:02.886Z,103398.59
2024-01-12T04:31:29.386Z,103396.84
2024-01-12T04:33:56.103Z,103395.09
2024-01-12T04:36:24.009Z,103396.78
2024-01-12T04:38:50.677Z,103395.88
2024-01-12T04:41:17.286Z,103386.44
2024-01-12T04:43:43.743Z,103385.56
2024-01-12T04:46:10.443Z,103376.91
2024-01-12T04:48:37.127Z,103375.16
2024-01-12T04:51:04.019Z,103373.41
2024-01-12T04:53:30.565Z,103368.22
2024-01-12T04:55:57.144Z,103371.66
2024-01-12T04:58:23.667Z,103366.53
2024-01-12T05:00:50.351Z,103367.34
2024-01-12T05:03:17.388Z,103368.19
2024-01-12T05:05:44.169Z,103368.16
2024-01-12T05:08:10.804Z,103370.78
2024-01-12T05:10:37.275Z,103375.91
2024-01-12T05:13:03.940Z,103380.13
2024-01-12T05:15:30.455Z,103386.06
2024-01-12T05:17:57.082Z,103391.19
2024-01-12T05:20:23.743Z,103386.94
2024-01-12T05:22:50.201Z,103387.78
2024-01-12T05:25:16.775Z,103386.88
2024-01-12T05:27:43.237Z,103383.31
2024-01-12T05:30:10.466Z,103390.09
2024-01-12T05:32:37.295Z,103384.03
2024-01-12T05:35:04.027Z,103393.50
2024-01-12T05:37:30.597Z,103392.56
2024-01-12T05:39:57.077Z,103399.34
2024-01-12T05:42:23.530Z,103385.59
2024-01-12T05:44:50.101Z,103389.94
2024-01-12T05:47:16.651Z,103400.25
2024-01-12T05:49:43.181Z,103401.97
2024-01-12T05:52:09.603Z,103395.94
2024-01-12T05:54:36.056Z,103393.34
2024-01-12T05:57:02.741Z,103395.88
2024-01-12T05:59:29.293Z,103390.78
2024-01-12T06:01:55.960Z,103387.41
2024-01-12T06:04:22.456Z,103385.63
2024-01-12T06:06:49.850Z,103384.84
2024-01-12T06:09:16.503Z,103386.53
2024-01-12T06:11:44.217Z,103395.16
2024-01-12T06:14:11.628Z,103399.47
2024-01-12T06:16:38.711Z,103402.09
2024-01-12T06:19:05.438Z,103404.78
2024-01-12T06:21:32.009Z,103409.97
2024-01-12T06:23:58.640Z,103410.91
2024-01-12T06:26:25.207Z,103412.63
2024-01-12T06:28:51.704Z,103409.09
2024-01-12T06:31:18.256Z,103401.38
2024-01-12T06:33:44.820Z,103409.97
2024-01-12T06:36:11.401Z,103410.00
2024-01-12T06:38:38.680Z,103402.22
2024-01-12T06:41:05.308Z,103399.63
2024-01-12T06:43:31.821Z,103400.44
2024-01-12T06:45:58.432Z,103401.31
2024-01-12T06:48:25.083Z,103399.56
2024-01-12T06:50:51.766Z,103391.78
2024-01-12T06:53:18.569Z,103396.06
2024-01-12T06:55:45.066Z,103402.09
2024-01-12T06:58:11.535Z,103398.72
2024-01-12T07:00:38.025Z,103393.59
2024-01-12T07:03:04.944Z,103386.72
2024-01-12T07:05:32.162Z,103387.56
2024-01-12T07:07:59.031Z,103395.25
2024-01-12T07:10:25.530Z,103393.56
2024-01-12T07:12:53.221Z,103389.19
2024-01-12T07:15:23.893Z,103385.81
2024-01-12T07:17:50.604Z,103376.34
2024-01-12T07:20:18.611Z,103378.09
2024-01-12T07:22:46.685Z,103386.75
2024-01-12T07:25:13.319Z,103381.56
2024-01-12T07:27:40.562Z,103386.72
2024-01-12T07:30:08.473Z,103374.63
2024-01-12T07:32:36.394Z,103378.09
2024-01-12T07:35:03.265Z,103376.41
2024-01-12T07:37:29.861Z,103378.09
2024-01-12T07:39:56.354Z,103384.03
2024-01-12T07:42:22.923Z,103388.34
2024-01-12T07:44:50.522Z,103378.84
2024-01-12T07:47:17.371Z,103382.25
2024-01-12T07:49:44.386Z,103383.94
2024-01-12T07:52:14.954Z,103383.91
2024-01-12T07:54:44.101Z,103388.16
2024-01-12T07:57:10.620Z,103388.97
2024-01-12T07:59:37.607Z,103384.72
2024-01-12T08:02:04.361Z,103381.31
2024-01-12T08:04:30.931Z,103392.44
2024-01-12T08:06:57.758Z,103389.91
2024-01-12T08:09:24.442Z,103401.13
2024-01-12T08:11:51.002Z,103408.91
2024-01-12T08:14:17.646Z,103407.22
2024-01-12T08:16:44.197Z,103419.28
2024-01-12T08:19:10.732Z,103414.13
2024-01-12T08:21:45.474Z,103410.63
2024-01-12T08:24:18.501Z,103401.13
2024-01-12T08:26:46.714Z,103411.47
2024-01-12T08:29:13.451Z,103395.22
2024-01-12T08:31:39.911Z,103401.34
2024-01-12T08:34:06.566Z,103397.94
2024-01-12T08:36:33.180Z,103392.78
2024-01-12T08:38:59.737Z,103393.69
2024-01-12T08:41:26.480Z,103396.31
2024-01-12T08:43:54.325Z,103401.44
2024-01-12T08:46:21.393Z,103403.16
2024-01-12T08:48:50.197Z,103398.88
2024-01-12T08:51:17.573Z,103399.78
2024-01-12T08:53:44.229Z,103397.25
2024-01-12T08:56:10.773Z,103387.88
2024-01-12T08:58:39.329Z,103390.56
2024-01-12T09:01:06.263Z,103394.06
2024-01-12T09:03:33.081Z,103382.00
2024-01-12T09:05:59.900Z,103380.31
2024-01-12T09:08:26.364Z,103376.97
2024-01-12T09:10:53.038Z,103380.47
2024-01-12T09:13:19.540Z,103388.22
2024-01-12T09:15:46.043Z,103390.84
2024-01-12T09:18:12.762Z,103393.50
2024-01-12T09:20:39.403Z,103389.19
2024-01-12T09:23:06.682Z,103389.22
2024-01-12T09:25:36.046Z,103392.69
2024-01-12T09:28:02.539Z,103391.91
2024-01-12T09:30:29.147Z,103393.69
2024-01-12T09:32:55.901Z,103387.72
2024-01-12T09:35:22.701Z,103391.19
2024-01-12T09:37:49.291Z,103387.00
2024-01-12T09:40:15.879Z,103387.03
2024-01-12T09:42:49.295Z,103383.63
2024-01-12T09:45:22.334Z,103380.19
2024-01-12T09:47:51.193Z,103372.44
2024-01-12T09:50:22.739Z,103384.56
2024-01-12T09:52:50.199Z,103379.41
2024-01-12T09:55:16.663Z,103384.63
2024-01-12T09:57:45.746Z,103386.44
2024-01-12T10:00:15.770Z,103386.50
2024-01-12T10:02:42.461Z,103390.88
2024-01-12T10:05:09.496Z,103392.59
2024-01-12T10:07:36.096Z,103395.22
2024-01-12T10:10:02.755Z,103385.75
2024-01-12T10:12:29.230Z,103376.31
2024-01-12T10:15:03.990Z,103379.81
2024-01-12T10:17:34.960Z,103379.84
2024-01-12T10:20:02.503Z,103383.31
2024-01-12T10:22:29.095Z,103379.88
2024-01-12T10:25:03.865Z,103389.44
2024-01-12T10:27:31.213Z,103392.91
2024-01-12T10:29:57.937Z,103381.69
2024-01-12T10:32:25.367Z,103388.63
2024-01-12T10:34:54.234Z,103374.88
2024-01-12T10:37:21.720Z,103374.88
2024-01-12T10:39:50.778Z,103362.81
2024-01-12T10:42:18.388Z,103356.75
2024-01-12T10:44:46.221Z,103365.38
2024-01-12T10:47:18.434Z,103355.94
2024-01-12T10:49:52.445Z,103355.94
2024-01-12T10:53:00.984Z,103359.44
2024-01-12T10:55:34.867Z,103354.28
2024-01-12T10:58:03.180Z,103348.22
2024-01-12T11:00:32.988Z,103350.84
2024-01-12T11:03:01.502Z,103356.06
2024-01-12T11:05:29.611Z,103358.66
2024-01-12T11:08:00.409Z,103362.16
2024-01-12T11:10:31.254Z,103363.91
2024-01-12T11:13:01.082Z,103366.47
2024-01-12T11:15:29.688Z,103363.88
2024-01-12T11:17:56.405Z,103363.03
2024-01-12T11:20:23.136Z,103353.56
2024-01-12T11:22:50.734Z,103352.75
2024-01-12T11:25:20.578Z,103351.03
2024-01-12T11:27:52.047Z,103351.03
2024-01-12T11:30:23.454Z,103357.06
2024-01-12T11:33:01.268Z,103359.69
2024-01-12T11:35:30.614Z,103360.53
2024-01-12T11:38:07.113Z,103357.06
2024-01-12T11:40:36.914Z,103356.22
2024-01-12T11:43:05.169Z,103353.59
2024-01-12T11:45:33.652Z,103346.72
2024-01-12T11:48:03.571Z,103343.28
2024-01-12T11:50:30.259Z,103339.84
2024-01-12T11:52:58.194Z,103339.84
2024-01-12T11:55:25.429Z,103329.50
2024-01-12T11:57:54.285Z,103325.19
2024-01-12T12:00:22.097Z,103315.72
2024-01-12T12:02:53.799Z,103315.69
2024-01-12T12:05:23.666Z,103315.72
2024-01-12T12:07:50.294Z,103306.22
2024-01-12T12:10:19.654Z,103296.75
2024-01-12T12:12:48.085Z,103297.59
2024-01-12T12:15:15.866Z,103296.72
2024-01-12T12:17:47.377Z,103289.84
2024-01-12T12:20:14.857Z,103297.63
2024-01-12T12:22:43.592Z,103286.41
2024-01-12T12:25:14.034Z,103278.66
2024-01-12T12:27:41.759Z,103276.91
2024-01-12T12:30:11.929Z,103276.91
2024-01-12T12:32:46.739Z,103268.25
2024-01-12T12:35:21.637Z,103266.53
2024-01-12T12:37:49.072Z,103267.41
2024-01-12T12:40:16.697Z,103260.53
2024-01-12T12:42:45.260Z,103262.28
2024-01-12T12:45:12.794Z,103257.06
2024-01-12T12:47:40.851Z,103257.09
2024-01-12T12:50:12.910Z,103247.56
2024-01-12T12:52:41.278Z,103247.56
2024-01-12T12:55:08.801Z,103253.59
2024-01-12T12:57:36.391Z,103243.22
2024-01-12T13:00:06.352Z,103237.19
2024-01-12T13:02:33.126Z,103232.88
2024-01-12T13:04:59.731Z,103229.44
2024-01-12T13:07:26.208Z,103224.22
2024-01-12T13:09:56.905Z,103223.38
2024-01-12T13:12:24.629Z,103215.59
2024-01-12T13:14:52.714Z,103217.31
2024-01-12T13:17:21.502Z,103206.97
2024-01-12T13:19:48.406Z,103207.84
2024-01-12T13:22:15.053Z,103200.06
2024-01-12T13:24:41.575Z,103194.91
2024-01-12T13:27:08.528Z,103199.22
2024-01-12T13:29:35.091Z,103199.22
2024-01-12T13:32:03.968Z,103202.66
2024-01-12T13:34:30.872Z,103199.22
2024-01-12T13:37:01.691Z,103204.41
2024-01-12T13:39:28.525Z,103205.25
2024-01-12T13:41:55.161Z,103213.03
2024-01-12T13:44:21.882Z,103220.78
2024-01-12T13:46:48.407Z,103219.09
2024-01-12T13:49:15.145Z,103215.63
2024-01-12T13:51:42.844Z,103210.44
2024-01-12T13:54:09.835Z,103212.16
2024-01-12T13:56:36.415Z,103203.56
2024-01-12T13:59:04.306Z,103202.69
2024-01-12T14:01:34.137Z,103207.00
2024-01-12T14:04:01.786Z,103194.91
2024-01-12T14:06:28.480Z,103195.78
2024-01-12T14:08:55.353Z,103191.47
2024-01-12T14:11:21.858Z,103197.50
2024-01-12T14:13:48.967Z,103186.28
2024-01-12T14:16:16.072Z,103186.25
2024-01-12T14:18:42.699Z,103181.97
2024-01-12T14:21:10.373Z,103189.72
2024-01-12T14:23:36.992Z,103188.00
2024-01-12T14:26:04.145Z,103189.72
2024-01-12T14:28:33.356Z,103188.00
2024-01-12T14:31:02.599Z,103185.38
2024-01-12T14:33:33.707Z,103185.41
2024-01-12T14:36:04.772Z,103188.84
2024-01-12T14:38:31.716Z,103187.13
2024-01-12T14:40:58.177Z,103190.59
2024-01-12T14:43:24.564Z,103184.50
2024-01-12T14:45:51.228Z,103189.69
2024-01-12T14:48:18.219Z,103194.88
2024-01-12T14:50:46.936Z,103192.28
2024-01-12T14:53:13.723Z,103186.22
2024-01-12T14:55:40.938Z,103187.91
2024-01-12T14:58:07.502Z,103187.91
2024-01-12T15:00:34.124Z,103191.38
2024-01-12T15:03:00.970Z,103190.53
2024-01-12T15:05:27.751Z,103187.03
2024-01-12T15:07:54.423Z,103190.50
2024-01-12T15:10:21.582Z,103187.03
2024-01-12T15:12:48.173Z,103185.34
2024-01-12T15:15:14.936Z,103179.28
2024-01-12T15:17:42.023Z,103175.81
2024-01-12T15:20:09.672Z,103174.09
2024-01-12T15:22:36.383Z,103176.66
2024-01-12T15:25:02.961Z,103183.56
2024-01-12T15:27:29.451Z,103177.53
2024-01-12T15:29:56.044Z,103174.03
2024-01-12T15:32:22.775Z,103165.41
2024-01-12T15:34:49.866Z,103160.25
2024-01-12T15:37:17.372Z,103161.97
2024-01-12T15:39:44.894Z,103160.25
2024-01-12T15:42:11.493Z,103159.38
2024-01-12T15:44:38.018Z,103167.13
2024-01-12T15:47:04.750Z,103160.25
2024-01-12T15:49:31.830Z,103158.53
2024-01-12T15:51:59.083Z,103168.00
2024-01-12T15:54:25.483Z,103161.97
2024-01-12T15:56:52.086Z,103161.97
2024-01-12T15:59:18.528Z,103158.53
2024-01-12T16:01:45.064Z,103149.03
2024-01-12T16:04:11.666Z,103153.34
2024-01-12T16:06:38.326Z,103157.66
2024-01-12T16:09:04.986Z,103155.94
2024-01-12T16:11:32.687Z,103153.34
2024-01-12T16:13:59.538Z,103155.94
2024-01-12T16:16:26.074Z,103155.94
2024-01-12T16:19:00.136Z,103161.09
2024-01-12T16:21:36.270Z,103158.50
2024-01-12T16:24:03.925Z,103161.06
2024-01-12T16:26:36.276Z,103159.38
2024-01-12T16:29:02.738Z,103165.41
2024-01-12T16:31:29.156Z,103160.25
2024-01-12T16:33:55.720Z,103160.25
2024-01-12T16:36:22.215Z,103158.53
2024-01-12T16:38:48.650Z,103152.47
2024-01-12T16:41:17.930Z,103158.50
2024-01-12T16:43:44.413Z,103163.69
2024-01-12T16:46:10.929Z,103157.63
2024-01-12T16:48:37.516Z,103153.31
2024-01-12T16:51:04.249Z,103159.34
2024-01-12T16:53:30.987Z,103159.34
2024-01-12T16:55:57.508Z,103161.94
2024-01-12T16:58:23.959Z,103161.91
2024-01-12T17:00:50.632Z,103174.00
2024-01-12T17:03:17.242Z,103170.56
2024-01-12T17:05:44.031Z,103166.22
2024-01-12T17:08:10.604Z,103164.50
2024-01-12T17:10:37.377Z,103163.66
2024-01-12T17:13:04.018Z,103161.06
2024-01-12T17:15:30.427Z,103161.91
2024-01-12T17:17:57.044Z,103155.88
2024-01-12T17:20:23.621Z,103149.84
2024-01-12T17:22:50.067Z,103156.72
2024-01-12T17:25:16.502Z,103148.97
2024-01-12T17:27:42.976Z,103151.56
2024-01-12T17:30:10.299Z,103149.84
2024-01-12T17:32:36.988Z,103145.53
2024-01-12T17:35:03.844Z,103147.22
2024-01-12T17:37:30.622Z,103144.66
2024-01-12T17:39:57.156Z,103140.34
2024-01-12T17:42:23.922Z,103135.16
2024-01-12T17:44:50.428Z,103132.56
2024-01-12T17:47:19.201Z,103131.69
2024-01-12T17:49:45.802Z,103129.97
2024-01-12T17:52:12.396Z,103129.09
2024-01-12T17:54:38.863Z,103130.81
2024-01-12T17:57:05.607Z,103129.09
2024-01-12T17:59:33.165Z,103129.94
2024-01-12T18:01:59.675Z,103131.66
2024-01-12T18:04:26.159Z,103133.34
2024-01-12T18:06:52.762Z,103136.84
2024-01-12T18:09:19.318Z,103139.44
2024-01-12T18:11:45.929Z,103127.38
2024-01-12T18:14:12.474Z,103131.69
2024-01-12T18:16:40.922Z,103133.41
2024-01-12T18:19:09.257Z,103126.50
2024-01-12T18:21:35.784Z,103127.34
2024-01-12T18:24:02.302Z,103124.72
2024-01-12T18:26:28.834Z,103124.75
2024-01-12T18:28:55.375Z,103124.75
2024-01-12T18:31:23.125Z,103129.03
2024-01-12T18:33:49.984Z,103122.13
2024-01-12T18:36:16.668Z,103119.53
2024-01-12T18:38:43.521Z,103117.78
2024-01-12T18:41:10.058Z,103130.69
2024-01-12T18:43:36.601Z,103117.78
2024-01-12T18:46:03.126Z,103115.19
2024-01-12T18:48:30.631Z,103121.22
2024-01-12T18:50:57.238Z,103121.19
2024-01-12T18:53:24.094Z,103118.59
2024-01-12T18:55:50.605Z,103116.03
2024-01-12T18:58:17.073Z,103111.69
2024-01-12T19:00:43.612Z,103117.72
2024-01-12T19:03:10.231Z,103110.84
2024-01-12T19:05:36.847Z,103116.88
2024-01-12T19:08:04.223Z,103116.03
2024-01-12T19:10:30.716Z,103108.28
2024-01-12T19:12:57.507Z,103105.69
2024-01-12T19:15:24.029Z,103111.75
2024-01-12T19:17:50.819Z,103103.97
2024-01-12T19:20:17.575Z,103100.53
2024-01-12T19:22:44.132Z,103101.38
2024-01-12T19:25:10.729Z,103097.06
2024-01-12T19:27:37.206Z,103100.53
2024-01-12T19:30:06.587Z,103097.97
2024-01-12T19:32:33.856Z,103096.22
2024-01-12T19:35:01.264Z,103096.22
2024-01-12T19:37:30.547Z,103096.22
2024-01-12T19:39:59.578Z,103097.09
2024-01-12T19:42:26.131Z,103096.22
2024-01-12T19:44:52.701Z,103093.63
2024-01-12T19:47:19.222Z,103090.19
2024-01-12T19:49:45.635Z,103088.47
2024-01-12T19:52:12.156Z,103095.38
2024-01-12T19:54:38.600Z,103094.53
2024-01-12T19:57:05.802Z,103097.09
2024-01-12T19:59:32.324Z,103097.94
2024-01-12T20:01:58.867Z,103100.53
2024-01-12T20:04:37.161Z,103097.06
2024-01-12T20:07:08.016Z,103094.50
2024-01-12T20:09:34.647Z,103096.22
2024-01-12T20:12:01.256Z,103095.31
2024-01-12T20:14:27.880Z,103094.47
2024-01-12T20:16:54.852Z,103085.00
2024-01-12T20:19:21.602Z,103089.31
2024-01-12T20:21:48.295Z,103086.69
2024-01-12T20:24:14.856Z,103091.00
2024-01-12T20:26:41.362Z,103097.06
2024-01-12T20:29:07.802Z,103092.72
2024-01-12T20:31:34.244Z,103090.13
2024-01-12T20:34:00.827Z,103083.22
2024-01-12T20:36:30.262Z,103088.41
2024-01-12T20:38:56.760Z,103090.09
2024-01-12T20:41:23.373Z,103085.75
2024-01-12T20:43:49.861Z,103087.50
2024-01-12T20:46:16.365Z,103084.06
2024-01-12T20:48:42.885Z,103084.03
2024-01-12T20:51:09.746Z,103082.25
2024-01-12T20:53:36.325Z,103084.84
2024-01-12T20:56:03.034Z,103083.13
2024-01-12T20:58:29.473Z,103081.44
2024-01-12T21:00:58.294Z,103078.84
2024-01-12T21:03:25.056Z,103070.25
2024-01-12T21:05:51.774Z,103068.53
2024-01-12T21:08:18.382Z,103072.03
2024-01-12T21:10:44.914Z,103065.09
2024-01-12T21:13:11.367Z,103059.91
2024-01-12T21:15:37.793Z,103060.75
2024-01-12T21:18:04.534Z,103060.75
2024-01-12T21:20:31.191Z,103052.13
2024-01-12T21:22:58.696Z,103051.25
2024-01-12T21:25:26.071Z,103046.94
2024-01-12T21:27:52.527Z,103050.34
2024-01-12T21:30:19.414Z,103043.44
2024-01-12T21:32:46.372Z,103040.88
2024-01-12T21:35:13.193Z,103035.69
2024-01-12T21:37:39.702Z,103034.75
2024-01-12T21:40:07.153Z,103027.91
2024-01-12T21:42:33.731Z,103028.75
2024-01-12T21:45:00.509Z,103027.94
2024-01-12T21:47:27.249Z,103025.38
2024-01-12T21:49:53.992Z,103023.66
2024-01-12T21:52:20.539Z,103021.91
2024-01-12T21:54:47.075Z,103014.19
2024-01-12T21:57:13.567Z,103013.31
2024-01-12T21:59:40.253Z,103011.59
2024-01-12T22:02:07.063Z,103009.00
2024-01-12T22:04:33.590Z,103009.88
2024-01-12T22:07:01.242Z,103008.13
2024-01-12T22:09:28.580Z,103001.22
2024-01-12T22:11:55.230Z,103005.53
2024-01-12T22:14:21.748Z,103006.38
2024-01-12T22:16:48.406Z,102997.81
2024-01-12T22:19:15.070Z,102996.94
2024-01-12T22:21:41.689Z,102991.78
2024-01-12T22:24:08.173Z,102988.31
2024-01-12T22:26:34.776Z,102996.06
2024-01-12T22:29:01.273Z,102984.03
2024-01-12T22:31:27.714Z,102983.16
2024-01-12T22:33:54.487Z,102978.84
2024-01-12T22:36:21.144Z,102982.31
2024-01-12T22:38:47.746Z,102972.84
2024-01-12T22:41:14.238Z,102969.41
2024-01-12T22:43:40.672Z,102965.97
2024-01-12T22:46:07.388Z,102965.97
2024-01-12T22:48:34.021Z,102959.97
2024-01-12T22:51:00.674Z,102965.09
2024-01-12T22:53:27.857Z,102962.53
2024-01-12T22:55:54.588Z,102960.78
2024-01-12T22:58:21.112Z,102952.19
2024-01-12T23:00:48.661Z,102954.75
2024-01-12T23:03:15.783Z,102944.44
2024-01-12T23:05:43.884Z,102949.59
2024-01-12T23:08:10.524Z,102943.56
2024-01-12T23:10:37.105Z,102943.56
2024-01-12T23:13:03.647Z,102941.00
2024-01-12T23:15:30.078Z,102936.69
2024-01-12T23:17:56.702Z,102940.97
2024-01-12T23:20:23.346Z,102937.56
2024-01-12T23:22:49.846Z,102928.06
2024-01-12T23:25:16.406Z,102920.28
2024-01-12T23:27:44.460Z,102920.28
2024-01-12T23:30:11.429Z,102917.72
2024-01-12T23:32:38.416Z,102904.81
2024-01-12T23:35:06.450Z,102906.56
2024-01-12T23:37:33.080Z,102891.88
2024-01-12T23:39:59.597Z,102893.56
2024-01-12T23:42:26.194Z,102896.16
2024-01-12T23:44:52.677Z,102885.84
2024-01-12T23:47:19.218Z,102894.44
2024-01-12T23:49:46.046Z,102892.75
2024-01-12T23:52:12.753Z,102884.09
2024-01-12T23:54:39.194Z,102889.28
2024-01-12T23:57:05.979Z,102885.81
2024-01-12T23:59:32.884Z,102887.56
